sensor_id;sensor_type;location;lat;lon;timestamp;P1;durP1;ratioP1;P2;durP2;ratioP2
10963;SDS011;5534;48.784;9.190;2023-07-31T00:00:31;3.08;;;1.33;;
10963;SDS011;5534;48.784;9.190;2023-07-31T00:02:56;2.28;;;1.08;;
10963;SDS011;5534;48.784;9.190;2023-07-31T00:05:22;1.45;;;0.90;;
10963;SDS011;5534;48.784;9.190;2023-07-31T00:07:48;2.47;;;1.10;;
10963;SDS011;5534;48.784;9.190;2023-07-31T00:10:14;2.85;;;1.33;;
10963;SDS011;5534;48.784;9.190;2023-07-31T00:12:43;2.25;;;1.10;;
10963;SDS011;5534;48.784;9.190;2023-07-31T00:15:10;2.58;;;1.00;;
10963;SDS011;5534;48.784;9.190;2023-07-31T00:17:36;2.17;;;1.17;;
10963;SDS011;5534;48.784;9.190;2023-07-31T00:20:02;2.35;;;1.08;;
10963;SDS011;5534;48.784;9.190;2023-07-31T00:22:28;3.35;;;1.10;;
10963;SDS011;5534;48.784;9.190;2023-07-31T00:24:54;1.20;;;0.90;;
10963;SDS011;5534;48.784;9.190;2023-07-31T00:27:19;2.55;;;0.80;;
10963;SDS011;5534;48.784;9.190;2023-07-31T00:29:45;4.93;;;1.30;;
10963;SDS011;5534;48.784;9.190;2023-07-31T00:32:11;1.48;;;1.05;;
10963;SDS011;5534;48.784;9.190;2023-07-31T00:34:37;3.45;;;1.40;;
10963;SDS011;5534;48.784;9.190;2023-07-31T00:37:02;3.33;;;1.10;;
10963;SDS011;5534;48.784;9.190;2023-07-31T00:39:29;3.00;;;1.13;;
10963;SDS011;5534;48.784;9.190;2023-07-31T00:41:55;4.07;;;1.25;;
10963;SDS011;5534;48.784;9.190;2023-07-31T00:44:21;1.27;;;0.90;;
10963;SDS011;5534;48.784;9.190;2023-07-31T00:46:48;2.03;;;1.17;;
10963;SDS011;5534;48.784;9.190;2023-07-31T00:49:14;3.53;;;1.13;;
10963;SDS011;5534;48.784;9.190;2023-07-31T00:51:40;2.40;;;1.10;;
10963;SDS011;5534;48.784;9.190;2023-07-31T00:54:06;3.13;;;1.15;;
10963;SDS011;5534;48.784;9.190;2023-07-31T00:56:32;1.98;;;1.23;;
10963;SDS011;5534;48.784;9.190;2023-07-31T00:58:59;2.15;;;1.02;;
10963;SDS011;5534;48.784;9.190;2023-07-31T01:01:24;2.83;;;1.05;;
10963;SDS011;5534;48.784;9.190;2023-07-31T01:03:50;2.72;;;0.90;;
10963;SDS011;5534;48.784;9.190;2023-07-31T01:12:00;2.85;;;1.17;;
10963;SDS011;5534;48.784;9.190;2023-07-31T01:14:27;4.10;;;1.10;;
10963;SDS011;5534;48.784;9.190;2023-07-31T01:16:54;3.60;;;1.05;;
10963;SDS011;5534;48.784;9.190;2023-07-31T01:19:23;2.53;;;1.08;;
10963;SDS011;5534;48.784;9.190;2023-07-31T01:24:57;3.55;;;1.33;;
10963;SDS011;5534;48.784;9.190;2023-07-31T01:27:51;2.85;;;1.00;;
10963;SDS011;5534;48.784;9.190;2023-07-31T01:30:25;2.20;;;1.10;;
10963;SDS011;5534;48.784;9.190;2023-07-31T01:32:58;1.90;;;1.20;;
10963;SDS011;5534;48.784;9.190;2023-07-31T01:35:27;1.40;;;0.90;;
10963;SDS011;5534;48.784;9.190;2023-07-31T01:37:53;1.52;;;0.90;;
10963;SDS011;5534;48.784;9.190;2023-07-31T01:40:19;1.33;;;0.80;;
10963;SDS011;5534;48.784;9.190;2023-07-31T01:42:45;2.58;;;1.10;;
10963;SDS011;5534;48.784;9.190;2023-07-31T01:45:10;1.25;;;1.02;;
10963;SDS011;5534;48.784;9.190;2023-07-31T01:47:37;3.33;;;1.15;;
10963;SDS011;5534;48.784;9.190;2023-07-31T01:50:02;3.05;;;1.35;;
10963;SDS011;5534;48.784;9.190;2023-07-31T01:52:28;1.58;;;1.08;;
10963;SDS011;5534;48.784;9.190;2023-07-31T01:54:55;2.22;;;1.00;;
10963;SDS011;5534;48.784;9.190;2023-07-31T01:57:21;1.98;;;1.02;;
10963;SDS011;5534;48.784;9.190;2023-07-31T01:59:46;2.15;;;1.15;;
10963;SDS011;5534;48.784;9.190;2023-07-31T02:02:12;1.40;;;1.00;;
10963;SDS011;5534;48.784;9.190;2023-07-31T02:04:38;2.97;;;1.10;;
10963;SDS011;5534;48.784;9.190;2023-07-31T02:07:05;1.88;;;1.10;;
10963;SDS011;5534;48.784;9.190;2023-07-31T02:09:31;1.63;;;1.08;;
10963;SDS011;5534;48.784;9.190;2023-07-31T02:11:57;1.55;;;0.90;;
10963;SDS011;5534;48.784;9.190;2023-07-31T02:14:23;2.42;;;1.10;;
10963;SDS011;5534;48.784;9.190;2023-07-31T02:16:49;2.22;;;1.00;;
10963;SDS011;5534;48.784;9.190;2023-07-31T02:19:15;3.10;;;1.10;;
10963;SDS011;5534;48.784;9.190;2023-07-31T02:21:40;3.00;;;1.40;;
10963;SDS011;5534;48.784;9.190;2023-07-31T02:24:06;2.05;;;1.10;;
10963;SDS011;5534;48.784;9.190;2023-07-31T02:26:32;2.97;;;1.27;;
10963;SDS011;5534;48.784;9.190;2023-07-31T02:28:57;2.13;;;1.27;;
10963;SDS011;5534;48.784;9.190;2023-07-31T02:31:23;3.53;;;1.05;;
10963;SDS011;5534;48.784;9.190;2023-07-31T02:33:49;1.83;;;1.00;;
10963;SDS011;5534;48.784;9.190;2023-07-31T02:36:14;1.98;;;1.30;;
10963;SDS011;5534;48.784;9.190;2023-07-31T02:38:40;1.98;;;0.90;;
10963;SDS011;5534;48.784;9.190;2023-07-31T02:41:06;2.03;;;1.10;;
10963;SDS011;5534;48.784;9.190;2023-07-31T02:43:32;3.88;;;1.00;;
10963;SDS011;5534;48.784;9.190;2023-07-31T02:45:57;1.75;;;1.20;;
10963;SDS011;5534;48.784;9.190;2023-07-31T02:48:26;2.75;;;1.20;;
10963;SDS011;5534;48.784;9.190;2023-07-31T02:50:52;2.17;;;1.05;;
10963;SDS011;5534;48.784;9.190;2023-07-31T02:53:18;8.35;;;1.60;;
10963;SDS011;5534;48.784;9.190;2023-07-31T02:55:44;3.40;;;1.20;;
10963;SDS011;5534;48.784;9.190;2023-07-31T02:58:10;2.22;;;1.08;;
10963;SDS011;5534;48.784;9.190;2023-07-31T03:00:35;1.77;;;1.35;;
10963;SDS011;5534;48.784;9.190;2023-07-31T03:03:01;3.25;;;1.20;;
10963;SDS011;5534;48.784;9.190;2023-07-31T03:05:27;4.07;;;1.48;;
10963;SDS011;5534;48.784;9.190;2023-07-31T03:07:52;2.15;;;1.08;;
10963;SDS011;5534;48.784;9.190;2023-07-31T03:10:18;1.77;;;1.25;;
10963;SDS011;5534;48.784;9.190;2023-07-31T03:12:46;4.05;;;1.42;;
10963;SDS011;5534;48.784;9.190;2023-07-31T03:15:13;4.32;;;1.13;;
10963;SDS011;5534;48.784;9.190;2023-07-31T03:17:38;2.00;;;1.20;;
10963;SDS011;5534;48.784;9.190;2023-07-31T03:20:04;3.70;;;1.20;;
10963;SDS011;5534;48.784;9.190;2023-07-31T03:22:30;1.60;;;1.10;;
10963;SDS011;5534;48.784;9.190;2023-07-31T03:24:56;1.90;;;1.20;;
10963;SDS011;5534;48.784;9.190;2023-07-31T03:27:22;4.93;;;1.10;;
10963;SDS011;5534;48.784;9.190;2023-07-31T03:29:47;1.67;;;0.90;;
10963;SDS011;5534;48.784;9.190;2023-07-31T03:32:15;2.10;;;1.10;;
10963;SDS011;5534;48.784;9.190;2023-07-31T03:34:40;2.50;;;1.25;;
10963;SDS011;5534;48.784;9.190;2023-07-31T03:37:06;3.78;;;1.27;;
10963;SDS011;5534;48.784;9.190;2023-07-31T03:39:34;2.90;;;1.30;;
10963;SDS011;5534;48.784;9.190;2023-07-31T03:42:00;3.05;;;1.35;;
10963;SDS011;5534;48.784;9.190;2023-07-31T03:44:26;2.85;;;1.10;;
10963;SDS011;5534;48.784;9.190;2023-07-31T03:46:52;2.22;;;1.33;;
10963;SDS011;5534;48.784;9.190;2023-07-31T03:49:18;1.58;;;1.30;;
10963;SDS011;5534;48.784;9.190;2023-07-31T03:51:43;1.63;;;1.30;;
10963;SDS011;5534;48.784;9.190;2023-07-31T03:54:09;2.60;;;1.33;;
10963;SDS011;5534;48.784;9.190;2023-07-31T03:56:35;1.85;;;1.35;;
10963;SDS011;5534;48.784;9.190;2023-07-31T03:59:01;6.57;;;1.30;;
10963;SDS011;5534;48.784;9.190;2023-07-31T04:01:26;3.17;;;1.40;;
10963;SDS011;5534;48.784;9.190;2023-07-31T04:03:52;1.63;;;1.10;;
10963;SDS011;5534;48.784;9.190;2023-07-31T04:06:18;2.33;;;1.40;;
10963;SDS011;5534;48.784;9.190;2023-07-31T04:08:44;2.17;;;1.55;;
10963;SDS011;5534;48.784;9.190;2023-07-31T04:11:10;1.67;;;1.10;;
10963;SDS011;5534;48.784;9.190;2023-07-31T04:13:37;2.58;;;1.40;;
10963;SDS011;5534;48.784;9.190;2023-07-31T04:16:03;4.47;;;1.50;;
10963;SDS011;5534;48.784;9.190;2023-07-31T04:18:29;3.20;;;1.35;;
10963;SDS011;5534;48.784;9.190;2023-07-31T04:20:56;4.13;;;2.15;;
10963;SDS011;5534;48.784;9.190;2023-07-31T04:23:23;3.50;;;1.60;;
10963;SDS011;5534;48.784;9.190;2023-07-31T04:25:50;4.38;;;1.73;;
10963;SDS011;5534;48.784;9.190;2023-07-31T04:28:15;3.60;;;1.60;;
10963;SDS011;5534;48.784;9.190;2023-07-31T04:30:41;5.72;;;1.20;;
10963;SDS011;5534;48.784;9.190;2023-07-31T04:33:07;2.38;;;1.60;;
10963;SDS011;5534;48.784;9.190;2023-07-31T04:35:33;5.57;;;1.90;;
10963;SDS011;5534;48.784;9.190;2023-07-31T04:37:59;3.00;;;1.55;;
10963;SDS011;5534;48.784;9.190;2023-07-31T04:40:24;3.45;;;1.83;;
10963;SDS011;5534;48.784;9.190;2023-07-31T04:42:50;2.85;;;1.60;;
10963;SDS011;5534;48.784;9.190;2023-07-31T04:45:16;3.88;;;2.05;;
10963;SDS011;5534;48.784;9.190;2023-07-31T04:47:42;5.65;;;1.70;;
10963;SDS011;5534;48.784;9.190;2023-07-31T04:50:08;6.78;;;1.95;;
10963;SDS011;5534;48.784;9.190;2023-07-31T04:52:33;4.07;;;1.55;;
10963;SDS011;5534;48.784;9.190;2023-07-31T04:54:59;4.57;;;2.38;;
10963;SDS011;5534;48.784;9.190;2023-07-31T04:57:25;5.30;;;2.20;;
10963;SDS011;5534;48.784;9.190;2023-07-31T04:59:51;5.57;;;1.90;;
10963;SDS011;5534;48.784;9.190;2023-07-31T05:02:16;4.55;;;1.52;;
10963;SDS011;5534;48.784;9.190;2023-07-31T05:04:42;4.03;;;1.20;;
10963;SDS011;5534;48.784;9.190;2023-07-31T05:07:08;4.03;;;1.30;;
10963;SDS011;5534;48.784;9.190;2023-07-31T05:09:33;3.45;;;1.35;;
10963;SDS011;5534;48.784;9.190;2023-07-31T05:11:59;3.72;;;1.60;;
10963;SDS011;5534;48.784;9.190;2023-07-31T05:14:25;2.33;;;1.48;;
10963;SDS011;5534;48.784;9.190;2023-07-31T05:16:51;3.17;;;1.33;;
10963;SDS011;5534;48.784;9.190;2023-07-31T05:19:17;3.75;;;1.05;;
10963;SDS011;5534;48.784;9.190;2023-07-31T05:21:43;3.30;;;1.45;;
10963;SDS011;5534;48.784;9.190;2023-07-31T05:24:09;2.35;;;1.02;;
10963;SDS011;5534;48.784;9.190;2023-07-31T05:26:36;4.57;;;1.75;;
10963;SDS011;5534;48.784;9.190;2023-07-31T05:29:03;2.90;;;1.20;;
10963;SDS011;5534;48.784;9.190;2023-07-31T05:31:28;4.70;;;1.40;;
10963;SDS011;5534;48.784;9.190;2023-07-31T05:33:54;2.95;;;1.25;;
10963;SDS011;5534;48.784;9.190;2023-07-31T05:36:20;4.57;;;1.80;;
10963;SDS011;5534;48.784;9.190;2023-07-31T05:38:46;5.93;;;2.33;;
10963;SDS011;5534;48.784;9.190;2023-07-31T05:41:12;7.60;;;2.13;;
10963;SDS011;5534;48.784;9.190;2023-07-31T05:43:38;5.30;;;2.00;;
10963;SDS011;5534;48.784;9.190;2023-07-31T05:46:04;4.30;;;2.03;;
10963;SDS011;5534;48.784;9.190;2023-07-31T05:48:29;4.53;;;2.08;;
10963;SDS011;5534;48.784;9.190;2023-07-31T05:50:55;3.13;;;1.80;;
10963;SDS011;5534;48.784;9.190;2023-07-31T05:53:21;4.30;;;1.90;;
10963;SDS011;5534;48.784;9.190;2023-07-31T05:55:47;5.05;;;2.10;;
10963;SDS011;5534;48.784;9.190;2023-07-31T05:58:12;4.22;;;1.90;;
10963;SDS011;5534;48.784;9.190;2023-07-31T06:00:38;4.20;;;1.95;;
10963;SDS011;5534;48.784;9.190;2023-07-31T06:03:04;5.85;;;1.38;;
10963;SDS011;5534;48.784;9.190;2023-07-31T06:05:29;2.35;;;1.42;;
10963;SDS011;5534;48.784;9.190;2023-07-31T06:07:55;4.13;;;1.58;;
10963;SDS011;5534;48.784;9.190;2023-07-31T06:10:22;5.55;;;1.70;;
10963;SDS011;5534;48.784;9.190;2023-07-31T06:12:48;5.40;;;1.40;;
10963;SDS011;5534;48.784;9.190;2023-07-31T06:15:13;3.10;;;1.52;;
10963;SDS011;5534;48.784;9.190;2023-07-31T06:17:39;2.33;;;1.17;;
10963;SDS011;5534;48.784;9.190;2023-07-31T06:20:06;2.78;;;1.48;;
10963;SDS011;5534;48.784;9.190;2023-07-31T06:22:32;3.13;;;1.30;;
10963;SDS011;5534;48.784;9.190;2023-07-31T06:24:58;2.38;;;1.65;;
10963;SDS011;5534;48.784;9.190;2023-07-31T06:27:24;3.60;;;2.08;;
10963;SDS011;5534;48.784;9.190;2023-07-31T06:29:50;5.47;;;2.22;;
10963;SDS011;5534;48.784;9.190;2023-07-31T06:32:16;3.15;;;1.50;;
10963;SDS011;5534;48.784;9.190;2023-07-31T06:34:41;2.05;;;1.23;;
10963;SDS011;5534;48.784;9.190;2023-07-31T06:37:10;2.17;;;1.60;;
10963;SDS011;5534;48.784;9.190;2023-07-31T06:39:36;3.10;;;2.10;;
10963;SDS011;5534;48.784;9.190;2023-07-31T06:42:02;2.83;;;1.33;;
10963;SDS011;5534;48.784;9.190;2023-07-31T06:44:28;2.92;;;1.15;;
10963;SDS011;5534;48.784;9.190;2023-07-31T06:46:54;2.63;;;1.90;;
10963;SDS011;5534;48.784;9.190;2023-07-31T06:49:20;3.50;;;1.52;;
10963;SDS011;5534;48.784;9.190;2023-07-31T06:51:46;3.60;;;1.40;;
10963;SDS011;5534;48.784;9.190;2023-07-31T06:54:11;3.70;;;1.52;;
10963;SDS011;5534;48.784;9.190;2023-07-31T06:56:37;2.33;;;1.45;;
10963;SDS011;5534;48.784;9.190;2023-07-31T06:59:03;3.97;;;1.58;;
10963;SDS011;5534;48.784;9.190;2023-07-31T07:01:29;5.25;;;1.40;;
10963;SDS011;5534;48.784;9.190;2023-07-31T07:03:54;2.28;;;1.30;;
10963;SDS011;5534;48.784;9.190;2023-07-31T07:06:21;3.72;;;1.40;;
10963;SDS011;5534;48.784;9.190;2023-07-31T07:08:48;5.32;;;1.27;;
10963;SDS011;5534;48.784;9.190;2023-07-31T07:11:14;2.42;;;1.35;;
10963;SDS011;5534;48.784;9.190;2023-07-31T07:13:39;4.43;;;1.33;;
10963;SDS011;5534;48.784;9.190;2023-07-31T07:16:05;2.97;;;1.27;;
10963;SDS011;5534;48.784;9.190;2023-07-31T07:18:31;5.53;;;1.80;;
10963;SDS011;5534;48.784;9.190;2023-07-31T07:20:57;3.90;;;1.80;;
10963;SDS011;5534;48.784;9.190;2023-07-31T07:23:23;2.70;;;1.48;;
10963;SDS011;5534;48.784;9.190;2023-07-31T07:25:49;2.45;;;1.30;;
10963;SDS011;5534;48.784;9.190;2023-07-31T07:28:16;4.15;;;1.77;;
10963;SDS011;5534;48.784;9.190;2023-07-31T07:30:42;5.03;;;1.55;;
10963;SDS011;5534;48.784;9.190;2023-07-31T07:33:07;2.08;;;1.27;;
10963;SDS011;5534;48.784;9.190;2023-07-31T07:35:33;2.83;;;1.80;;
10963;SDS011;5534;48.784;9.190;2023-07-31T07:38:00;3.70;;;1.73;;
10963;SDS011;5534;48.784;9.190;2023-07-31T07:40:27;4.15;;;2.90;;
10963;SDS011;5534;48.784;9.190;2023-07-31T07:42:52;3.63;;;1.55;;
10963;SDS011;5534;48.784;9.190;2023-07-31T07:45:18;4.55;;;2.03;;
10963;SDS011;5534;48.784;9.190;2023-07-31T07:47:44;5.40;;;2.00;;
10963;SDS011;5534;48.784;9.190;2023-07-31T07:50:09;6.97;;;1.92;;
10963;SDS011;5534;48.784;9.190;2023-07-31T07:52:35;2.50;;;1.20;;
10963;SDS011;5534;48.784;9.190;2023-07-31T07:55:02;2.78;;;2.03;;
10963;SDS011;5534;48.784;9.190;2023-07-31T07:57:29;7.63;;;5.13;;
10963;SDS011;5534;48.784;9.190;2023-07-31T07:59:55;3.42;;;2.55;;
10963;SDS011;5534;48.784;9.190;2023-07-31T08:02:21;3.45;;;1.75;;
10963;SDS011;5534;48.784;9.190;2023-07-31T08:04:47;3.28;;;1.50;;
10963;SDS011;5534;48.784;9.190;2023-07-31T08:07:13;2.60;;;1.40;;
10963;SDS011;5534;48.784;9.190;2023-07-31T08:09:39;3.67;;;1.52;;
10963;SDS011;5534;48.784;9.190;2023-07-31T08:12:05;3.97;;;1.85;;
10963;SDS011;5534;48.784;9.190;2023-07-31T08:14:31;3.75;;;1.75;;
10963;SDS011;5534;48.784;9.190;2023-07-31T08:16:57;5.13;;;2.10;;
10963;SDS011;5534;48.784;9.190;2023-07-31T08:19:23;2.95;;;1.92;;
10963;SDS011;5534;48.784;9.190;2023-07-31T08:21:49;2.28;;;1.35;;
10963;SDS011;5534;48.784;9.190;2023-07-31T08:24:15;4.22;;;1.70;;
10963;SDS011;5534;48.784;9.190;2023-07-31T08:29:26;3.13;;;1.75;;
10963;SDS011;5534;48.784;9.190;2023-07-31T08:31:54;3.67;;;1.50;;
10963;SDS011;5534;48.784;9.190;2023-07-31T08:34:25;1.98;;;1.38;;
10963;SDS011;5534;48.784;9.190;2023-07-31T08:40:15;4.47;;;2.13;;
10963;SDS011;5534;48.784;9.190;2023-07-31T08:43:04;3.00;;;1.83;;
10963;SDS011;5534;48.784;9.190;2023-07-31T08:45:30;2.90;;;2.22;;
10963;SDS011;5534;48.784;9.190;2023-07-31T08:47:57;3.92;;;1.70;;
10963;SDS011;5534;48.784;9.190;2023-07-31T08:50:26;6.32;;;2.35;;
10963;SDS011;5534;48.784;9.190;2023-07-31T08:52:53;6.07;;;2.25;;
10963;SDS011;5534;48.784;9.190;2023-07-31T08:55:19;4.05;;;2.00;;
10963;SDS011;5534;48.784;9.190;2023-07-31T08:57:51;5.20;;;2.15;;
10963;SDS011;5534;48.784;9.190;2023-07-31T09:00:20;2.85;;;1.80;;
10963;SDS011;5534;48.784;9.190;2023-07-31T09:02:52;8.40;;;4.13;;
10963;SDS011;5534;48.784;9.190;2023-07-31T09:05:25;4.05;;;2.17;;
10963;SDS011;5534;48.784;9.190;2023-07-31T09:07:52;2.85;;;2.47;;
10963;SDS011;5534;48.784;9.190;2023-07-31T09:10:20;6.15;;;2.88;;
10963;SDS011;5534;48.784;9.190;2023-07-31T09:12:46;5.30;;;2.15;;
10963;SDS011;5534;48.784;9.190;2023-07-31T09:15:13;3.20;;;1.80;;
10963;SDS011;5534;48.784;9.190;2023-07-31T09:17:39;6.47;;;1.73;;
10963;SDS011;5534;48.784;9.190;2023-07-31T09:20:15;2.35;;;1.63;;
10963;SDS011;5534;48.784;9.190;2023-07-31T09:22:43;5.55;;;1.75;;
10963;SDS011;5534;48.784;9.190;2023-07-31T09:25:18;2.83;;;1.70;;
10963;SDS011;5534;48.784;9.190;2023-07-31T09:30:12;5.20;;;2.72;;
10963;SDS011;5534;48.784;9.190;2023-07-31T09:32:38;6.80;;;2.65;;
10963;SDS011;5534;48.784;9.190;2023-07-31T09:35:21;6.63;;;4.10;;
10963;SDS011;5534;48.784;9.190;2023-07-31T09:37:58;5.88;;;3.95;;
10963;SDS011;5534;48.784;9.190;2023-07-31T09:40:26;6.05;;;3.72;;
10963;SDS011;5534;48.784;9.190;2023-07-31T09:43:02;8.55;;;4.25;;
10963;SDS011;5534;48.784;9.190;2023-07-31T09:45:29;5.80;;;3.75;;
10963;SDS011;5534;48.784;9.190;2023-07-31T09:47:59;4.65;;;3.10;;
10963;SDS011;5534;48.784;9.190;2023-07-31T09:50:25;3.25;;;1.92;;
10963;SDS011;5534;48.784;9.190;2023-07-31T09:52:51;4.30;;;2.47;;
10963;SDS011;5534;48.784;9.190;2023-07-31T09:55:18;4.30;;;2.55;;
10963;SDS011;5534;48.784;9.190;2023-07-31T09:57:45;4.78;;;2.70;;
10963;SDS011;5534;48.784;9.190;2023-07-31T10:00:15;6.22;;;3.03;;
10963;SDS011;5534;48.784;9.190;2023-07-31T10:02:46;5.10;;;3.17;;
10963;SDS011;5534;48.784;9.190;2023-07-31T10:05:13;4.15;;;3.38;;
10963;SDS011;5534;48.784;9.190;2023-07-31T10:07:42;5.13;;;3.45;;
10963;SDS011;5534;48.784;9.190;2023-07-31T10:10:15;6.43;;;2.05;;
10963;SDS011;5534;48.784;9.190;2023-07-31T10:12:43;4.43;;;2.05;;
10963;SDS011;5534;48.784;9.190;2023-07-31T10:15:10;5.03;;;1.90;;
10963;SDS011;5534;48.784;9.190;2023-07-31T10:17:37;3.03;;;2.35;;
10963;SDS011;5534;48.784;9.190;2023-07-31T10:20:03;3.40;;;1.88;;
10963;SDS011;5534;48.784;9.190;2023-07-31T10:22:31;2.90;;;1.65;;
10963;SDS011;5534;48.784;9.190;2023-07-31T10:24:59;3.53;;;2.10;;
10963;SDS011;5534;48.784;9.190;2023-07-31T10:27:25;6.78;;;3.97;;
10963;SDS011;5534;48.784;9.190;2023-07-31T10:29:52;5.07;;;3.15;;
10963;SDS011;5534;48.784;9.190;2023-07-31T10:32:19;3.03;;;2.33;;
10963;SDS011;5534;48.784;9.190;2023-07-31T10:34:46;3.63;;;1.83;;
10963;SDS011;5534;48.784;9.190;2023-07-31T10:42:50;4.38;;;2.72;;
10963;SDS011;5534;48.784;9.190;2023-07-31T10:45:39;5.15;;;2.25;;
10963;SDS011;5534;48.784;9.190;2023-07-31T10:50:47;6.55;;;2.20;;
10963;SDS011;5534;48.784;9.190;2023-07-31T10:53:30;2.75;;;2.00;;
10963;SDS011;5534;48.784;9.190;2023-07-31T10:56:04;3.95;;;2.03;;
10963;SDS011;5534;48.784;9.190;2023-07-31T10:58:32;3.65;;;2.15;;
10963;SDS011;5534;48.784;9.190;2023-07-31T11:00:59;5.63;;;2.03;;
10963;SDS011;5534;48.784;9.190;2023-07-31T11:03:27;5.68;;;2.80;;
10963;SDS011;5534;48.784;9.190;2023-07-31T11:06:06;4.40;;;1.38;;
10963;SDS011;5534;48.784;9.190;2023-07-31T11:08:33;4.63;;;2.78;;
10963;SDS011;5534;48.784;9.190;2023-07-31T11:11:10;3.40;;;2.35;;
10963;SDS011;5534;48.784;9.190;2023-07-31T11:13:41;4.53;;;2.20;;
10963;SDS011;5534;48.784;9.190;2023-07-31T11:16:11;7.60;;;3.75;;
10963;SDS011;5534;48.784;9.190;2023-07-31T11:18:38;6.30;;;3.42;;
10963;SDS011;5534;48.784;9.190;2023-07-31T11:21:06;5.50;;;3.50;;
10963;SDS011;5534;48.784;9.190;2023-07-31T11:23:32;4.10;;;2.10;;
10963;SDS011;5534;48.784;9.190;2023-07-31T11:26:00;7.63;;;4.22;;
10963;SDS011;5534;48.784;9.190;2023-07-31T11:28:31;4.13;;;2.10;;
10963;SDS011;5534;48.784;9.190;2023-07-31T11:30:58;4.75;;;2.47;;
10963;SDS011;5534;48.784;9.190;2023-07-31T11:33:28;3.92;;;2.20;;
10963;SDS011;5534;48.784;9.190;2023-07-31T11:35:54;3.63;;;2.03;;
10963;SDS011;5534;48.784;9.190;2023-07-31T11:38:27;4.75;;;1.88;;
10963;SDS011;5534;48.784;9.190;2023-07-31T11:40:56;6.68;;;2.25;;
10963;SDS011;5534;48.784;9.190;2023-07-31T11:43:26;3.25;;;1.92;;
10963;SDS011;5534;48.784;9.190;2023-07-31T11:45:55;2.47;;;1.70;;
10963;SDS011;5534;48.784;9.190;2023-07-31T11:48:29;3.10;;;1.63;;
10963;SDS011;5534;48.784;9.190;2023-07-31T11:51:02;2.47;;;1.70;;
10963;SDS011;5534;48.784;9.190;2023-07-31T11:56:19;5.22;;;2.13;;
10963;SDS011;5534;48.784;9.190;2023-07-31T11:58:47;3.95;;;1.80;;
10963;SDS011;5534;48.784;9.190;2023-07-31T12:01:18;3.58;;;2.40;;
10963;SDS011;5534;48.784;9.190;2023-07-31T12:03:46;3.53;;;1.70;;
10963;SDS011;5534;48.784;9.190;2023-07-31T12:06:12;4.50;;;1.90;;
10963;SDS011;5534;48.784;9.190;2023-07-31T12:08:38;5.40;;;1.98;;
10963;SDS011;5534;48.784;9.190;2023-07-31T12:11:04;4.93;;;1.88;;
10963;SDS011;5534;48.784;9.190;2023-07-31T12:13:32;4.13;;;2.35;;
10963;SDS011;5534;48.784;9.190;2023-07-31T12:15:59;4.60;;;2.30;;
10963;SDS011;5534;48.784;9.190;2023-07-31T12:18:27;3.78;;;2.25;;
10963;SDS011;5534;48.784;9.190;2023-07-31T12:20:58;3.38;;;2.17;;
10963;SDS011;5534;48.784;9.190;2023-07-31T12:23:26;3.85;;;1.42;;
10963;SDS011;5534;48.784;9.190;2023-07-31T12:28:39;3.58;;;1.90;;
10963;SDS011;5534;48.784;9.190;2023-07-31T12:31:13;4.75;;;1.98;;
10963;SDS011;5534;48.784;9.190;2023-07-31T12:33:44;4.10;;;1.85;;
10963;SDS011;5534;48.784;9.190;2023-07-31T12:36:21;3.83;;;1.80;;
10963;SDS011;5534;48.784;9.190;2023-07-31T12:38:48;4.18;;;1.83;;
10963;SDS011;5534;48.784;9.190;2023-07-31T12:41:15;2.78;;;1.75;;
10963;SDS011;5534;48.784;9.190;2023-07-31T12:43:42;4.90;;;1.98;;
10963;SDS011;5534;48.784;9.190;2023-07-31T12:46:08;4.07;;;1.77;;
10963;SDS011;5534;48.784;9.190;2023-07-31T12:48:35;3.13;;;1.80;;
10963;SDS011;5534;48.784;9.190;2023-07-31T12:51:02;3.92;;;1.95;;
10963;SDS011;5534;48.784;9.190;2023-07-31T12:53:28;4.55;;;2.28;;
10963;SDS011;5534;48.784;9.190;2023-07-31T12:55:55;4.78;;;2.58;;
10963;SDS011;5534;48.784;9.190;2023-07-31T12:58:21;4.90;;;2.30;;
10963;SDS011;5534;48.784;9.190;2023-07-31T13:00:47;4.05;;;1.98;;
10963;SDS011;5534;48.784;9.190;2023-07-31T13:03:13;2.97;;;2.03;;
10963;SDS011;5534;48.784;9.190;2023-07-31T13:05:38;4.45;;;2.10;;
10963;SDS011;5534;48.784;9.190;2023-07-31T13:08:04;6.13;;;2.00;;
10963;SDS011;5534;48.784;9.190;2023-07-31T13:10:30;3.25;;;2.25;;
10963;SDS011;5534;48.784;9.190;2023-07-31T13:12:56;4.47;;;2.40;;
10963;SDS011;5534;48.784;9.190;2023-07-31T13:15:22;3.00;;;1.80;;
10963;SDS011;5534;48.784;9.190;2023-07-31T13:17:48;2.60;;;1.90;;
10963;SDS011;5534;48.784;9.190;2023-07-31T13:20:14;5.13;;;1.85;;
10963;SDS011;5534;48.784;9.190;2023-07-31T13:22:40;4.28;;;1.95;;
10963;SDS011;5534;48.784;9.190;2023-07-31T13:25:06;3.20;;;1.90;;
10963;SDS011;5534;48.784;9.190;2023-07-31T13:27:32;3.78;;;1.70;;
10963;SDS011;5534;48.784;9.190;2023-07-31T13:29:58;3.33;;;1.63;;
10963;SDS011;5534;48.784;9.190;2023-07-31T13:32:23;4.03;;;1.98;;
10963;SDS011;5534;48.784;9.190;2023-07-31T13:34:49;2.92;;;1.95;;
10963;SDS011;5534;48.784;9.190;2023-07-31T13:37:15;3.38;;;1.98;;
10963;SDS011;5534;48.784;9.190;2023-07-31T13:39:41;3.28;;;1.80;;
10963;SDS011;5534;48.784;9.190;2023-07-31T13:42:08;3.58;;;2.00;;
10963;SDS011;5534;48.784;9.190;2023-07-31T13:44:37;2.83;;;1.80;;
10963;SDS011;5534;48.784;9.190;2023-07-31T13:47:04;3.42;;;2.45;;
10963;SDS011;5534;48.784;9.190;2023-07-31T13:49:30;2.63;;;1.80;;
10963;SDS011;5534;48.784;9.190;2023-07-31T13:51:56;3.67;;;1.60;;
10963;SDS011;5534;48.784;9.190;2023-07-31T13:54:23;4.57;;;2.17;;
10963;SDS011;5534;48.784;9.190;2023-07-31T13:56:49;2.45;;;1.83;;
10963;SDS011;5534;48.784;9.190;2023-07-31T13:59:18;5.18;;;1.88;;
10963;SDS011;5534;48.784;9.190;2023-07-31T14:01:44;2.85;;;1.58;;
10963;SDS011;5534;48.784;9.190;2023-07-31T14:04:10;4.15;;;1.67;;
10963;SDS011;5534;48.784;9.190;2023-07-31T14:06:36;2.72;;;1.77;;
10963;SDS011;5534;48.784;9.190;2023-07-31T14:09:02;4.38;;;2.08;;
10963;SDS011;5534;48.784;9.190;2023-07-31T14:11:28;4.05;;;1.83;;
10963;SDS011;5534;48.784;9.190;2023-07-31T14:13:55;7.28;;;1.85;;
10963;SDS011;5534;48.784;9.190;2023-07-31T14:16:21;3.70;;;1.73;;
10963;SDS011;5534;48.784;9.190;2023-07-31T14:18:47;2.97;;;1.92;;
10963;SDS011;5534;48.784;9.190;2023-07-31T14:21:24;3.92;;;1.80;;
10963;SDS011;5534;48.784;9.190;2023-07-31T14:23:50;3.50;;;1.40;;
10963;SDS011;5534;48.784;9.190;2023-07-31T14:26:24;3.05;;;1.65;;
10963;SDS011;5534;48.784;9.190;2023-07-31T14:28:50;3.83;;;1.70;;
10963;SDS011;5534;48.784;9.190;2023-07-31T14:31:16;2.40;;;1.88;;
10963;SDS011;5534;48.784;9.190;2023-07-31T14:33:41;2.90;;;1.75;;
10963;SDS011;5534;48.784;9.190;2023-07-31T14:36:07;4.13;;;1.90;;
10963;SDS011;5534;48.784;9.190;2023-07-31T14:38:33;2.53;;;1.70;;
10963;SDS011;5534;48.784;9.190;2023-07-31T14:40:59;4.22;;;2.00;;
10963;SDS011;5534;48.784;9.190;2023-07-31T14:43:24;2.47;;;1.73;;
10963;SDS011;5534;48.784;9.190;2023-07-31T14:45:50;4.57;;;2.00;;
10963;SDS011;5534;48.784;9.190;2023-07-31T14:48:18;2.53;;;1.80;;
10963;SDS011;5534;48.784;9.190;2023-07-31T14:50:44;5.75;;;2.10;;
10963;SDS011;5534;48.784;9.190;2023-07-31T14:53:09;4.00;;;2.00;;
10963;SDS011;5534;48.784;9.190;2023-07-31T14:55:35;6.15;;;1.73;;
10963;SDS011;5534;48.784;9.190;2023-07-31T14:58:01;4.85;;;2.13;;
10963;SDS011;5534;48.784;9.190;2023-07-31T15:00:28;4.80;;;2.05;;
10963;SDS011;5534;48.784;9.190;2023-07-31T15:02:54;3.25;;;1.75;;
10963;SDS011;5534;48.784;9.190;2023-07-31T15:05:19;4.85;;;1.70;;
10963;SDS011;5534;48.784;9.190;2023-07-31T15:07:45;3.70;;;2.08;;
10963;SDS011;5534;48.784;9.190;2023-07-31T15:10:11;4.68;;;1.77;;
10963;SDS011;5534;48.784;9.190;2023-07-31T15:12:37;3.40;;;2.40;;
10963;SDS011;5534;48.784;9.190;2023-07-31T15:15:05;2.92;;;2.22;;
10963;SDS011;5534;48.784;9.190;2023-07-31T15:17:34;3.60;;;1.70;;
10963;SDS011;5534;48.784;9.190;2023-07-31T15:20:00;2.28;;;1.83;;
10963;SDS011;5534;48.784;9.190;2023-07-31T15:22:26;3.15;;;1.65;;
10963;SDS011;5534;48.784;9.190;2023-07-31T15:24:52;2.40;;;1.67;;
10963;SDS011;5534;48.784;9.190;2023-07-31T15:27:19;5.05;;;2.08;;
10963;SDS011;5534;48.784;9.190;2023-07-31T15:29:45;4.00;;;1.50;;